sensor_id;sensor_type;location;lat;lon;timestamp;P1;durP1;ratioP1;P2;durP2;ratioP2
51082;SDS011;37131;42.694;23.350;2022-07-23T00:02:24;17.77;;;6.43;;
51082;SDS011;37131;42.694;23.350;2022-07-23T00:04:49;19.10;;;6.88;;
51082;SDS011;37131;42.694;23.350;2022-07-23T00:07:15;19.83;;;7.43;;
51082;SDS011;37131;42.694;23.350;2022-07-23T00:09:40;22.40;;;8.35;;
51082;SDS011;37131;42.694;23.350;2022-07-23T00:12:05;18.40;;;8.32;;
51082;SDS011;37131;42.694;23.350;2022-07-23T00:14:31;21.70;;;7.35;;
51082;SDS011;37131;42.694;23.350;2022-07-23T00:16:56;18.45;;;6.90;;
51082;SDS011;37131;42.694;23.350;2022-07-23T00:19:22;23.45;;;7.75;;
51082;SDS011;37131;42.694;23.350;2022-07-23T00:21:47;19.30;;;6.88;;
51082;SDS011;37131;42.694;23.350;2022-07-23T00:24:13;18.20;;;6.15;;
51082;SDS011;37131;42.694;23.350;2022-07-23T00:26:38;18.98;;;6.07;;
51082;SDS011;37131;42.694;23.350;2022-07-23T00:29:03;13.40;;;5.72;;
51082;SDS011;37131;42.694;23.350;2022-07-23T00:31:29;15.48;;;5.68;;
51082;SDS011;37131;42.694;23.350;2022-07-23T00:33:54;17.40;;;5.93;;
51082;SDS011;37131;42.694;23.350;2022-07-23T00:36:22;15.82;;;5.50;;
51082;SDS011;37131;42.694;23.350;2022-07-23T00:38:48;9.13;;;4.25;;
51082;SDS011;37131;42.694;23.350;2022-07-23T00:41:14;15.35;;;5.32;;
51082;SDS011;37131;42.694;23.350;2022-07-23T00:43:39;8.68;;;3.60;;
51082;SDS011;37131;42.694;23.350;2022-07-23T00:46:05;8.20;;;3.42;;
51082;SDS011;37131;42.694;23.350;2022-07-23T00:48:30;6.95;;;3.47;;
51082;SDS011;37131;42.694;23.350;2022-07-23T00:50:56;6.47;;;3.25;;
51082;SDS011;37131;42.694;23.350;2022-07-23T00:53:21;16.30;;;4.32;;
51082;SDS011;37131;42.694;23.350;2022-07-23T00:55:47;5.00;;;2.97;;
51082;SDS011;37131;42.694;23.350;2022-07-23T00:58:13;7.78;;;3.20;;
51082;SDS011;37131;42.694;23.350;2022-07-23T01:00:40;6.40;;;3.05;;
51082;SDS011;37131;42.694;23.350;2022-07-23T01:03:06;5.75;;;3.22;;
51082;SDS011;37131;42.694;23.350;2022-07-23T01:05:32;4.47;;;2.67;;
51082;SDS011;37131;42.694;23.350;2022-07-23T01:07:58;7.97;;;3.15;;
51082;SDS011;37131;42.694;23.350;2022-07-23T01:10:24;5.53;;;3.20;;
51082;SDS011;37131;42.694;23.350;2022-07-23T01:12:57;5.75;;;2.95;;
51082;SDS011;37131;42.694;23.350;2022-07-23T01:15:23;6.45;;;3.08;;
51082;SDS011;37131;42.694;23.350;2022-07-23T01:17:48;7.13;;;3.00;;
51082;SDS011;37131;42.694;23.350;2022-07-23T01:20:14;5.63;;;2.92;;
51082;SDS011;37131;42.694;23.350;2022-07-23T01:22:40;9.10;;;3.63;;
51082;SDS011;37131;42.694;23.350;2022-07-23T01:25:05;7.55;;;3.70;;
51082;SDS011;37131;42.694;23.350;2022-07-23T01:27:31;6.90;;;3.60;;
51082;SDS011;37131;42.694;23.350;2022-07-23T01:29:57;7.63;;;3.15;;
51082;SDS011;37131;42.694;23.350;2022-07-23T01:32:25;7.25;;;3.65;;
51082;SDS011;37131;42.694;23.350;2022-07-23T01:34:51;6.35;;;3.50;;
51082;SDS011;37131;42.694;23.350;2022-07-23T01:37:16;9.02;;;3.63;;
51082;SDS011;37131;42.694;23.350;2022-07-23T01:39:41;11.98;;;4.05;;
51082;SDS011;37131;42.694;23.350;2022-07-23T01:42:07;6.10;;;3.00;;
51082;SDS011;37131;42.694;23.350;2022-07-23T01:44:32;8.25;;;3.30;;
51082;SDS011;37131;42.694;23.350;2022-07-23T01:46:58;11.65;;;3.38;;
51082;SDS011;37131;42.694;23.350;2022-07-23T01:49:23;7.65;;;3.63;;
51082;SDS011;37131;42.694;23.350;2022-07-23T01:51:48;6.75;;;3.10;;
51082;SDS011;37131;42.694;23.350;2022-07-23T01:54:29;6.15;;;3.30;;
51082;SDS011;37131;42.694;23.350;2022-07-23T01:56:57;6.70;;;3.33;;
51082;SDS011;37131;42.694;23.350;2022-07-23T01:59:23;6.70;;;3.03;;
51082;SDS011;37131;42.694;23.350;2022-07-23T02:01:49;8.02;;;3.63;;
51082;SDS011;37131;42.694;23.350;2022-07-23T02:04:17;7.10;;;3.45;;
51082;SDS011;37131;42.694;23.350;2022-07-23T02:06:43;6.60;;;3.53;;
51082;SDS011;37131;42.694;23.350;2022-07-23T02:09:09;7.55;;;3.47;;
51082;SDS011;37131;42.694;23.350;2022-07-23T02:11:34;8.38;;;3.70;;
51082;SDS011;37131;42.694;23.350;2022-07-23T02:14:00;6.63;;;3.22;;
51082;SDS011;37131;42.694;23.350;2022-07-23T02:16:25;6.88;;;3.30;;
51082;SDS011;37131;42.694;23.350;2022-07-23T02:18:51;6.82;;;3.58;;
51082;SDS011;37131;42.694;23.350;2022-07-23T02:21:16;14.60;;;5.43;;
51082;SDS011;37131;42.694;23.350;2022-07-23T02:23:41;14.27;;;5.10;;
51082;SDS011;37131;42.694;23.350;2022-07-23T02:26:07;13.50;;;5.47;;
51082;SDS011;37131;42.694;23.350;2022-07-23T02:28:32;20.50;;;7.63;;
51082;SDS011;37131;42.694;23.350;2022-07-23T02:30:58;22.60;;;7.53;;
51082;SDS011;37131;42.694;23.350;2022-07-23T02:33:23;21.67;;;6.88;;
51082;SDS011;37131;42.694;23.350;2022-07-23T02:35:49;23.70;;;8.13;;
51082;SDS011;37131;42.694;23.350;2022-07-23T02:38:14;26.85;;;8.75;;
51082;SDS011;37131;42.694;23.350;2022-07-23T02:40:40;17.20;;;7.50;;
51082;SDS011;37131;42.694;23.350;2022-07-23T02:43:05;21.73;;;7.90;;
51082;SDS011;37131;42.694;23.350;2022-07-23T02:45:31;25.17;;;8.70;;
51082;SDS011;37131;42.694;23.350;2022-07-23T02:47:56;21.70;;;8.13;;
51082;SDS011;37131;42.694;23.350;2022-07-23T02:50:22;22.23;;;8.52;;
51082;SDS011;37131;42.694;23.350;2022-07-23T02:52:47;24.35;;;8.68;;
51082;SDS011;37131;42.694;23.350;2022-07-23T02:55:13;25.90;;;8.35;;
51082;SDS011;37131;42.694;23.350;2022-07-23T02:57:38;27.23;;;8.27;;
51082;SDS011;37131;42.694;23.350;2022-07-23T03:00:04;29.30;;;8.57;;
51082;SDS011;37131;42.694;23.350;2022-07-23T03:02:31;22.92;;;7.45;;
51082;SDS011;37131;42.694;23.350;2022-07-23T03:04:56;18.92;;;6.45;;
51082;SDS011;37131;42.694;23.350;2022-07-23T03:07:22;18.83;;;7.05;;
51082;SDS011;37131;42.694;23.350;2022-07-23T03:09:47;19.38;;;6.93;;
51082;SDS011;37131;42.694;23.350;2022-07-23T03:12:13;20.50;;;6.72;;
51082;SDS011;37131;42.694;23.350;2022-07-23T03:14:38;20.15;;;7.38;;
51082;SDS011;37131;42.694;23.350;2022-07-23T03:17:04;17.15;;;5.93;;
51082;SDS011;37131;42.694;23.350;2022-07-23T03:19:29;9.02;;;5.03;;
51082;SDS011;37131;42.694;23.350;2022-07-23T03:21:54;18.45;;;6.28;;
51082;SDS011;37131;42.694;23.350;2022-07-23T03:24:20;16.65;;;5.72;;
51082;SDS011;37131;42.694;23.350;2022-07-23T03:26:45;14.48;;;5.20;;
51082;SDS011;37131;42.694;23.350;2022-07-23T03:29:11;15.27;;;5.50;;
51082;SDS011;37131;42.694;23.350;2022-07-23T03:31:37;13.52;;;4.90;;
51082;SDS011;37131;42.694;23.350;2022-07-23T03:34:02;15.52;;;4.57;;
51082;SDS011;37131;42.694;23.350;2022-07-23T03:36:28;12.57;;;4.30;;
51082;SDS011;37131;42.694;23.350;2022-07-23T03:38:53;17.70;;;5.10;;
51082;SDS011;37131;42.694;23.350;2022-07-23T03:41:19;11.48;;;4.40;;
51082;SDS011;37131;42.694;23.350;2022-07-23T03:43:45;15.00;;;4.80;;
51082;SDS011;37131;42.694;23.350;2022-07-23T03:46:11;9.48;;;4.57;;
51082;SDS011;37131;42.694;23.350;2022-07-23T03:48:37;10.02;;;4.65;;
51082;SDS011;37131;42.694;23.350;2022-07-23T03:51:03;15.60;;;4.60;;
51082;SDS011;37131;42.694;23.350;2022-07-23T03:53:28;15.38;;;4.57;;
51082;SDS011;37131;42.694;23.350;2022-07-23T03:55:54;15.60;;;5.07;;
51082;SDS011;37131;42.694;23.350;2022-07-23T03:58:19;8.70;;;4.28;;
51082;SDS011;37131;42.694;23.350;2022-07-23T04:00:45;19.52;;;5.05;;
51082;SDS011;37131;42.694;23.350;2022-07-23T04:03:11;10.25;;;3.85;;
51082;SDS011;37131;42.694;23.350;2022-07-23T04:05:36;8.52;;;4.05;;
51082;SDS011;37131;42.694;23.350;2022-07-23T04:08:02;7.03;;;4.07;;
51082;SDS011;37131;42.694;23.350;2022-07-23T04:10:27;8.40;;;3.90;;
51082;SDS011;37131;42.694;23.350;2022-07-23T04:12:53;8.60;;;3.70;;
51082;SDS011;37131;42.694;23.350;2022-07-23T04:15:18;12.73;;;4.30;;
51082;SDS011;37131;42.694;23.350;2022-07-23T04:17:44;8.45;;;3.80;;
51082;SDS011;37131;42.694;23.350;2022-07-23T04:20:11;17.63;;;5.60;;
51082;SDS011;37131;42.694;23.350;2022-07-23T04:22:38;10.80;;;4.47;;
51082;SDS011;37131;42.694;23.350;2022-07-23T04:25:04;6.35;;;4.07;;
51082;SDS011;37131;42.694;23.350;2022-07-23T04:27:29;9.40;;;3.83;;
51082;SDS011;37131;42.694;23.350;2022-07-23T04:29:55;8.77;;;4.20;;
51082;SDS011;37131;42.694;23.350;2022-07-23T04:32:20;9.23;;;4.28;;
51082;SDS011;37131;42.694;23.350;2022-07-23T04:34:46;11.65;;;4.47;;
51082;SDS011;37131;42.694;23.350;2022-07-23T04:37:11;8.07;;;4.47;;
51082;SDS011;37131;42.694;23.350;2022-07-23T04:39:37;14.10;;;4.70;;
51082;SDS011;37131;42.694;23.350;2022-07-23T04:42:02;7.85;;;3.70;;
51082;SDS011;37131;42.694;23.350;2022-07-23T04:44:27;16.67;;;4.80;;
51082;SDS011;37131;42.694;23.350;2022-07-23T04:46:53;11.98;;;4.53;;
51082;SDS011;37131;42.694;23.350;2022-07-23T04:49:18;12.90;;;4.95;;
51082;SDS011;37131;42.694;23.350;2022-07-23T04:51:44;16.88;;;5.45;;
51082;SDS011;37131;42.694;23.350;2022-07-23T04:54:09;16.30;;;5.00;;
51082;SDS011;37131;42.694;23.350;2022-07-23T04:56:34;9.80;;;4.72;;
51082;SDS011;37131;42.694;23.350;2022-07-23T04:59:00;9.27;;;5.05;;
51082;SDS011;37131;42.694;23.350;2022-07-23T05:01:25;18.13;;;5.50;;
51082;SDS011;37131;42.694;23.350;2022-07-23T05:03:51;21.05;;;6.03;;
51082;SDS011;37131;42.694;23.350;2022-07-23T05:06:16;19.02;;;6.05;;
51082;SDS011;37131;42.694;23.350;2022-07-23T05:08:41;15.82;;;5.40;;
51082;SDS011;37131;42.694;23.350;2022-07-23T05:11:07;9.13;;;4.38;;
51082;SDS011;37131;42.694;23.350;2022-07-23T05:13:32;19.08;;;6.88;;
51082;SDS011;37131;42.694;23.350;2022-07-23T05:15:58;18.77;;;6.53;;
51082;SDS011;37131;42.694;23.350;2022-07-23T05:18:23;13.23;;;5.55;;
51082;SDS011;37131;42.694;23.350;2022-07-23T05:20:48;19.27;;;6.15;;
51082;SDS011;37131;42.694;23.350;2022-07-23T05:23:14;17.63;;;6.30;;
51082;SDS011;37131;42.694;23.350;2022-07-23T05:25:39;10.40;;;4.72;;
51082;SDS011;37131;42.694;23.350;2022-07-23T05:28:05;20.92;;;6.20;;
51082;SDS011;37131;42.694;23.350;2022-07-23T05:30:30;15.98;;;5.68;;
51082;SDS011;37131;42.694;23.350;2022-07-23T05:32:56;16.65;;;5.22;;
51082;SDS011;37131;42.694;23.350;2022-07-23T05:35:21;11.30;;;5.07;;
51082;SDS011;37131;42.694;23.350;2022-07-23T05:37:46;14.05;;;5.13;;
51082;SDS011;37131;42.694;23.350;2022-07-23T05:40:12;16.58;;;5.15;;
51082;SDS011;37131;42.694;23.350;2022-07-23T05:42:38;16.58;;;6.03;;
51082;SDS011;37131;42.694;23.350;2022-07-23T05:45:05;11.43;;;5.25;;
51082;SDS011;37131;42.694;23.350;2022-07-23T05:47:45;18.73;;;5.90;;
51082;SDS011;37131;42.694;23.350;2022-07-23T05:50:12;9.25;;;4.82;;
51082;SDS011;37131;42.694;23.350;2022-07-23T05:52:39;10.18;;;5.13;;
51082;SDS011;37131;42.694;23.350;2022-07-23T05:55:05;13.15;;;5.25;;
51082;SDS011;37131;42.694;23.350;2022-07-23T05:57:31;11.30;;;4.95;;
51082;SDS011;37131;42.694;23.350;2022-07-23T05:59:57;21.35;;;6.10;;
51082;SDS011;37131;42.694;23.350;2022-07-23T06:02:22;9.43;;;4.40;;
51082;SDS011;37131;42.694;23.350;2022-07-23T06:04:48;9.65;;;4.55;;
51082;SDS011;37131;42.694;23.350;2022-07-23T06:07:13;11.80;;;4.80;;
51082;SDS011;37131;42.694;23.350;2022-07-23T06:09:38;7.90;;;4.15;;
51082;SDS011;37131;42.694;23.350;2022-07-23T06:12:04;11.30;;;4.78;;
51082;SDS011;37131;42.694;23.350;2022-07-23T06:14:30;16.95;;;5.30;;
51082;SDS011;37131;42.694;23.350;2022-07-23T06:16:55;13.88;;;4.57;;
51082;SDS011;37131;42.694;23.350;2022-07-23T06:19:20;10.15;;;4.15;;
51082;SDS011;37131;42.694;23.350;2022-07-23T06:21:46;12.23;;;4.43;;
51082;SDS011;37131;42.694;23.350;2022-07-23T06:24:11;11.98;;;4.43;;
51082;SDS011;37131;42.694;23.350;2022-07-23T06:26:37;14.90;;;4.95;;
51082;SDS011;37131;42.694;23.350;2022-07-23T06:29:02;7.03;;;3.83;;
51082;SDS011;37131;42.694;23.350;2022-07-23T06:31:28;8.73;;;3.58;;
51082;SDS011;37131;42.694;23.350;2022-07-23T06:33:53;8.90;;;4.22;;
51082;SDS011;37131;42.694;23.350;2022-07-23T06:36:19;6.65;;;3.40;;
51082;SDS011;37131;42.694;23.350;2022-07-23T06:38:44;12.88;;;3.83;;
51082;SDS011;37131;42.694;23.350;2022-07-23T06:41:10;18.60;;;5.13;;
51082;SDS011;37131;42.694;23.350;2022-07-23T06:43:35;9.63;;;4.10;;
51082;SDS011;37131;42.694;23.350;2022-07-23T06:46:01;9.82;;;3.83;;
51082;SDS011;37131;42.694;23.350;2022-07-23T06:48:26;14.32;;;4.35;;
51082;SDS011;37131;42.694;23.350;2022-07-23T06:50:53;9.85;;;4.38;;
51082;SDS011;37131;42.694;23.350;2022-07-23T06:53:18;7.95;;;4.05;;
51082;SDS011;37131;42.694;23.350;2022-07-23T06:55:43;11.15;;;4.05;;
51082;SDS011;37131;42.694;23.350;2022-07-23T06:58:09;8.50;;;3.45;;
51082;SDS011;37131;42.694;23.350;2022-07-23T07:00:35;10.48;;;3.78;;
51082;SDS011;37131;42.694;23.350;2022-07-23T07:03:00;13.90;;;4.38;;
51082;SDS011;37131;42.694;23.350;2022-07-23T07:05:26;10.55;;;3.85;;
51082;SDS011;37131;42.694;23.350;2022-07-23T07:07:53;9.20;;;3.58;;
51082;SDS011;37131;42.694;23.350;2022-07-23T07:10:21;14.68;;;4.50;;
51082;SDS011;37131;42.694;23.350;2022-07-23T07:12:47;8.48;;;3.60;;
51082;SDS011;37131;42.694;23.350;2022-07-23T07:15:12;7.63;;;3.90;;
51082;SDS011;37131;42.694;23.350;2022-07-23T07:17:38;11.85;;;4.15;;
51082;SDS011;37131;42.694;23.350;2022-07-23T07:20:04;9.15;;;4.07;;
51082;SDS011;37131;42.694;23.350;2022-07-23T07:22:30;7.70;;;3.85;;
51082;SDS011;37131;42.694;23.350;2022-07-23T07:24:56;17.30;;;4.80;;
51082;SDS011;37131;42.694;23.350;2022-07-23T07:27:21;8.60;;;3.90;;
51082;SDS011;37131;42.694;23.350;2022-07-23T07:29:47;8.13;;;3.92;;
51082;SDS011;37131;42.694;23.350;2022-07-23T07:32:12;9.38;;;4.20;;
51082;SDS011;37131;42.694;23.350;2022-07-23T07:34:37;10.45;;;4.30;;
51082;SDS011;37131;42.694;23.350;2022-07-23T07:37:03;13.48;;;4.93;;
51082;SDS011;37131;42.694;23.350;2022-07-23T07:39:28;15.77;;;4.95;;
51082;SDS011;37131;42.694;23.350;2022-07-23T07:41:53;8.45;;;4.00;;
51082;SDS011;37131;42.694;23.350;2022-07-23T07:44:19;9.82;;;4.22;;
51082;SDS011;37131;42.694;23.350;2022-07-23T07:46:44;14.45;;;4.50;;
51082;SDS011;37131;42.694;23.350;2022-07-23T07:49:10;7.85;;;3.50;;
51082;SDS011;37131;42.694;23.350;2022-07-23T07:51:36;15.70;;;5.53;;
51082;SDS011;37131;42.694;23.350;2022-07-23T07:54:01;10.63;;;4.28;;
51082;SDS011;37131;42.694;23.350;2022-07-23T07:56:27;8.85;;;3.72;;
51082;SDS011;37131;42.694;23.350;2022-07-23T07:58:52;15.20;;;4.50;;
51082;SDS011;37131;42.694;23.350;2022-07-23T08:01:18;16.10;;;5.15;;
51082;SDS011;37131;42.694;23.350;2022-07-23T08:03:44;8.80;;;4.20;;
51082;SDS011;37131;42.694;23.350;2022-07-23T08:06:10;7.93;;;3.70;;
51082;SDS011;37131;42.694;23.350;2022-07-23T08:08:35;9.05;;;3.92;;
51082;SDS011;37131;42.694;23.350;2022-07-23T08:11:01;8.18;;;3.75;;
51082;SDS011;37131;42.694;23.350;2022-07-23T08:13:26;8.27;;;3.70;;
51082;SDS011;37131;42.694;23.350;2022-07-23T08:15:52;15.25;;;4.70;;
51082;SDS011;37131;42.694;23.350;2022-07-23T08:18:18;10.10;;;3.80;;
51082;SDS011;37131;42.694;23.350;2022-07-23T08:20:44;10.43;;;4.03;;
51082;SDS011;37131;42.694;23.350;2022-07-23T08:23:09;10.20;;;3.75;;
51082;SDS011;37131;42.694;23.350;2022-07-23T08:25:38;5.95;;;3.15;;
51082;SDS011;37131;42.694;23.350;2022-07-23T08:28:07;13.30;;;4.28;;
51082;SDS011;37131;42.694;23.350;2022-07-23T08:30:37;14.70;;;4.20;;
51082;SDS011;37131;42.694;23.350;2022-07-23T08:33:07;10.75;;;3.67;;
51082;SDS011;37131;42.694;23.350;2022-07-23T08:35:42;12.98;;;4.28;;
51082;SDS011;37131;42.694;23.350;2022-07-23T08:38:11;11.60;;;3.80;;
51082;SDS011;37131;42.694;23.350;2022-07-23T08:40:39;7.78;;;3.33;;
51082;SDS011;37131;42.694;23.350;2022-07-23T08:43:10;9.27;;;3.92;;
51082;SDS011;37131;42.694;23.350;2022-07-23T08:45:38;7.90;;;3.53;;
51082;SDS011;37131;42.694;23.350;2022-07-23T08:48:13;9.60;;;4.00;;
51082;SDS011;37131;42.694;23.350;2022-07-23T08:50:43;6.80;;;3.40;;
51082;SDS011;37131;42.694;23.350;2022-07-23T08:53:14;8.68;;;3.50;;
51082;SDS011;37131;42.694;23.350;2022-07-23T08:55:40;8.70;;;3.42;;
51082;SDS011;37131;42.694;23.350;2022-07-23T08:58:09;16.65;;;3.97;;
51082;SDS011;37131;42.694;23.350;2022-07-23T09:00:34;12.35;;;3.45;;
51082;SDS011;37131;42.694;23.350;2022-07-23T09:03:00;6.05;;;3.03;;
51082;SDS011;37131;42.694;23.350;2022-07-23T09:05:25;14.07;;;3.95;;
51082;SDS011;37131;42.694;23.350;2022-07-23T09:16:07;15.10;;;3.80;;
51082;SDS011;37131;42.694;23.350;2022-07-23T09:23:38;16.05;;;4.22;;
51082;SDS011;37131;42.694;23.350;2022-07-23T09:26:24;8.90;;;3.03;;
51082;SDS011;37131;42.694;23.350;2022-07-23T09:37:14;10.82;;;3.72;;
51082;SDS011;37131;42.694;23.350;2022-07-23T09:39:39;8.50;;;3.60;;
51082;SDS011;37131;42.694;23.350;2022-07-23T09:44:48;19.98;;;4.82;;
51082;SDS011;37131;42.694;23.350;2022-07-23T09:47:15;11.80;;;3.70;;
51082;SDS011;37131;42.694;23.350;2022-07-23T09:49:56;10.18;;;3.25;;
51082;SDS011;37131;42.694;23.350;2022-07-23T09:52:26;8.30;;;3.42;;
51082;SDS011;37131;42.694;23.350;2022-07-23T09:55:04;7.43;;;2.85;;
51082;SDS011;37131;42.694;23.350;2022-07-23T09:57:31;6.40;;;3.08;;
51082;SDS011;37131;42.694;23.350;2022-07-23T10:00:00;12.75;;;3.45;;
51082;SDS011;37131;42.694;23.350;2022-07-23T10:02:28;8.38;;;2.78;;
51082;SDS011;37131;42.694;23.350;2022-07-23T10:04:54;7.18;;;2.90;;
51082;SDS011;37131;42.694;23.350;2022-07-23T10:07:21;7.75;;;3.35;;
51082;SDS011;37131;42.694;23.350;2022-07-23T10:09:48;5.78;;;2.67;;
51082;SDS011;37131;42.694;23.350;2022-07-23T10:12:17;12.82;;;3.63;;
51082;SDS011;37131;42.694;23.350;2022-07-23T10:15:02;7.72;;;2.83;;
51082;SDS011;37131;42.694;23.350;2022-07-23T10:17:33;4.22;;;2.70;;
51082;SDS011;37131;42.694;23.350;2022-07-23T10:20:00;7.28;;;2.92;;
51082;SDS011;37131;42.694;23.350;2022-07-23T10:22:27;9.35;;;3.00;;
51082;SDS011;37131;42.694;23.350;2022-07-23T10:30:04;12.20;;;3.80;;
51082;SDS011;37131;42.694;23.350;2022-07-23T10:35:33;8.55;;;2.88;;
51082;SDS011;37131;42.694;23.350;2022-07-23T10:38:11;10.48;;;3.42;;
51082;SDS011;37131;42.694;23.350;2022-07-23T10:41:02;9.50;;;2.55;;
51082;SDS011;37131;42.694;23.350;2022-07-23T10:43:29;5.03;;;2.42;;
51082;SDS011;37131;42.694;23.350;2022-07-23T10:45:56;7.32;;;2.50;;
51082;SDS011;37131;42.694;23.350;2022-07-23T10:48:41;5.93;;;3.30;;
51082;SDS011;37131;42.694;23.350;2022-07-23T10:56:17;9.20;;;2.92;;
51082;SDS011;37131;42.694;23.350;2022-07-23T10:59:21;11.65;;;3.00;;
51082;SDS011;37131;42.694;23.350;2022-07-23T11:01:47;9.45;;;2.58;;
51082;SDS011;37131;42.694;23.350;2022-07-23T11:04:13;11.77;;;3.05;;
51082;SDS011;37131;42.694;23.350;2022-07-23T11:12:38;14.07;;;3.10;;
51082;SDS011;37131;42.694;23.350;2022-07-23T11:17:23;7.45;;;2.47;;
51082;SDS011;37131;42.694;23.350;2022-07-23T11:22:46;8.82;;;2.58;;
51082;SDS011;37131;42.694;23.350;2022-07-23T11:25:14;5.78;;;2.33;;
51082;SDS011;37131;42.694;23.350;2022-07-23T11:27:55;13.85;;;3.25;;
51082;SDS011;37131;42.694;23.350;2022-07-23T11:30:43;9.25;;;2.80;;
51082;SDS011;37131;42.694;23.350;2022-07-23T11:35:37;8.43;;;2.25;;
51082;SDS011;37131;42.694;23.350;2022-07-23T11:40:29;12.82;;;3.33;;
51082;SDS011;37131;42.694;23.350;2022-07-23T11:42:56;11.45;;;3.00;;
51082;SDS011;37131;42.694;23.350;2022-07-23T11:45:22;7.32;;;2.08;;
51082;SDS011;37131;42.694;23.350;2022-07-23T11:47:49;7.45;;;2.28;;
51082;SDS011;37131;42.694;23.350;2022-07-23T11:50:15;5.97;;;2.45;;
51082;SDS011;37131;42.694;23.350;2022-07-23T11:52:40;9.10;;;2.60;;
51082;SDS011;37131;42.694;23.350;2022-07-23T11:55:06;16.13;;;3.25;;
51082;SDS011;37131;42.694;23.350;2022-07-23T11:57:38;8.77;;;2.65;;
51082;SDS011;37131;42.694;23.350;2022-07-23T12:00:08;7.57;;;2.35;;
51082;SDS011;37131;42.694;23.350;2022-07-23T12:02:41;15.35;;;3.13;;
51082;SDS011;37131;42.694;23.350;2022-07-23T12:05:15;8.98;;;2.85;;
51082;SDS011;37131;42.694;23.350;2022-07-23T12:07:45;9.73;;;2.90;;
51082;SDS011;37131;42.694;23.350;2022-07-23T12:15:14;15.77;;;2.97;;
51082;SDS011;37131;42.694;23.350;2022-07-23T12:17:41;8.23;;;2.45;;
51082;SDS011;37131;42.694;23.350;2022-07-23T12:20:09;7.53;;;2.75;;
51082;SDS011;37131;42.694;23.350;2022-07-23T12:22:38;14.68;;;2.75;;
51082;SDS011;37131;42.694;23.350;2022-07-23T12:25:13;15.52;;;3.33;;
51082;SDS011;37131;42.694;23.350;2022-07-23T12:27:43;8.95;;;2.42;;
51082;SDS011;37131;42.694;23.350;2022-07-23T12:30:19;10.70;;;2.60;;
51082;SDS011;37131;42.694;23.350;2022-07-23T12:32:47;19.70;;;4.03;;
51082;SDS011;37131;42.694;23.350;2022-07-23T12:35:14;15.45;;;3.47;;
51082;SDS011;37131;42.694;23.350;2022-07-23T12:37:42;9.40;;;2.97;;
51082;SDS011;37131;42.694;23.350;2022-07-23T12:40:22;7.55;;;2.97;;
51082;SDS011;37131;42.694;23.350;2022-07-23T12:42:49;13.35;;;3.55;;
51082;SDS011;37131;42.694;23.350;2022-07-23T12:45:15;9.35;;;2.95;;
51082;SDS011;37131;42.694;23.350;2022-07-23T12:50:39;16.33;;;3.95;;
51082;SDS011;37131;42.694;23.350;2022-07-23T12:53:08;8.55;;;2.58;;
51082;SDS011;37131;42.694;23.350;2022-07-23T12:55:45;9.02;;;2.60;;
51082;SDS011;37131;42.694;23.350;2022-07-23T12:58:16;11.25;;;2.92;;
51082;SDS011;37131;42.694;23.350;2022-07-23T13:00:59;8.68;;;2.92;;
51082;SDS011;37131;42.694;23.350;2022-07-23T13:03:28;13.43;;;3.10;;
51082;SDS011;37131;42.694;23.350;2022-07-23T13:05:54;9.52;;;2.83;;
51082;SDS011;37131;42.694;23.350;2022-07-23T13:08:20;15.32;;;3.35;;
51082;SDS011;37131;42.694;23.350;2022-07-23T13:10:46;9.80;;;2.85;;
51082;SDS011;37131;42.694;23.350;2022-07-23T13:13:16;9.15;;;2.60;;
51082;SDS011;37131;42.694;23.350;2022-07-23T13:15:44;15.10;;;3.17;;
51082;SDS011;37131;42.694;23.350;2022-07-23T13:18:10;7.75;;;2.50;;
51082;SDS011;37131;42.694;23.350;2022-07-23T13:20:38;11.82;;;2.95;;
51082;SDS011;37131;42.694;23.350;2022-07-23T13:23:07;12.05;;;3.30;;
51082;SDS011;37131;42.694;23.350;2022-07-23T13:25:33;14.52;;;3.08;;
51082;SDS011;37131;42.694;23.350;2022-07-23T13:27:58;8.18;;;2.38;;
51082;SDS011;37131;42.694;23.350;2022-07-23T13:30:24;11.70;;;2.72;;
51082;SDS011;37131;42.694;23.350;2022-07-23T13:32:50;8.15;;;2.80;;
51082;SDS011;37131;42.694;23.350;2022-07-23T13:35:15;7.75;;;2.40;;
51082;SDS011;37131;42.694;23.350;2022-07-23T13:37:41;8.65;;;2.47;;
51082;SDS011;37131;42.694;23.350;2022-07-23T13:40:06;9.95;;;2.80;;
51082;SDS011;37131;42.694;23.350;2022-07-23T13:42:32;13.77;;;3.22;;
51082;SDS011;37131;42.694;23.350;2022-07-23T13:44:57;12.77;;;3.25;;
51082;SDS011;37131;42.694;23.350;2022-07-23T13:47:23;9.18;;;2.40;;
51082;SDS011;37131;42.694;23.350;2022-07-23T13:49:48;12.65;;;2.97;;
51082;SDS011;37131;42.694;23.350;2022-07-23T13:52:13;9.15;;;2.45;;
51082;SDS011;37131;42.694;23.350;2022-07-23T13:54:39;8.02;;;2.58;;
51082;SDS011;37131;42.694;23.350;2022-07-23T13:57:04;15.30;;;3.40;;
51082;SDS011;37131;42.694;23.350;2022-07-23T13:59:30;9.60;;;2.47;;
51082;SDS011;37131;42.694;23.350;2022-07-23T14:01:55;13.35;;;2.83;;
51082;SDS011;37131;42.694;23.350;2022-07-23T14:04:21;7.78;;;2.58;;
51082;SDS011;37131;42.694;23.350;2022-07-23T14:06:46;8.55;;;2.10;;
51082;SDS011;37131;42.694;23.350;2022-07-23T14:09:12;8.35;;;2.80;;
51082;SDS011;37131;42.694;23.350;2022-07-23T14:11:37;8.18;;;2.70;;
51082;SDS011;37131;42.694;23.350;2022-07-23T14:14:04;7.57;;;2.28;;
51082;SDS011;37131;42.694;23.350;2022-07-23T14:16:30;9.43;;;2.70;;
51082;SDS011;37131;42.694;23.350;2022-07-23T14:18:55;10.15;;;2.63;;
51082;SDS011;37131;42.694;23.350;2022-07-23T14:21:21;6.45;;;2.42;;
51082;SDS011;37131;42.694;23.350;2022-07-23T14:23:46;16.38;;;3.45;;
51082;SDS011;37131;42.694;23.350;2022-07-23T14:26:12;8.52;;;3.03;;
51082;SDS011;37131;42.694;23.350;2022-07-23T14:28:37;7.18;;;2.13;;
51082;SDS011;37131;42.694;23.350;2022-07-23T14:31:03;14.93;;;3.42;;
51082;SDS011;37131;42.694;23.350;2022-07-23T14:33:28;11.15;;;2.70;;
51082;SDS011;37131;42.694;23.350;2022-07-23T14:35:54;6.43;;;2.42;;
51082;SDS011;37131;42.694;23.350;2022-07-23T14:38:19;7.90;;;2.25;;
51082;SDS011;37131;42.694;23.350;2022-07-23T14:40:45;13.55;;;3.08;;
51082;SDS011;37131;42.694;23.350;2022-07-23T14:43:10;6.88;;;2.40;;
51082;SDS011;37131;42.694;23.350;2022-07-23T14:45:35;6.85;;;2.35;;
51082;SDS011;37131;42.694;23.350;2022-07-23T14:48:01;10.93;;;2.83;;
51082;SDS011;37131;42.694;23.350;2022-07-23T14:50:28;12.93;;;2.95;;
51082;SDS011;37131;42.694;23.350;2022-07-23T14:52:53;8.77;;;2.28;;
51082;SDS011;37131;42.694;23.350;2022-07-23T14:55:19;8.27;;;2.60;;
51082;SDS011;37131;42.694;23.350;2022-07-23T14:57:45;9.85;;;2.38;;
51082;SDS011;37131;42.694;23.350;2022-07-23T15:00:11;7.57;;;2.25;;
51082;SDS011;37131;42.694;23.350;2022-07-23T15:02:36;6.97;;;2.35;;
51082;SDS011;37131;42.694;23.350;2022-07-23T15:05:02;6.68;;;2.20;;
51082;SDS011;37131;42.694;23.350;2022-07-23T15:07:28;10.77;;;2.35;;
51082;SDS011;37131;42.694;23.350;2022-07-23T15:09:55;7.22;;;2.33;;
51082;SDS011;37131;42.694;23.350;2022-07-23T15:12:23;13.07;;;3.33;;
51082;SDS011;37131;42.694;23.350;2022-07-23T15:14:49;8.32;;;2.45;;
51082;SDS011;37131;42.694;23.350;2022-07-23T15:17:15;17.13;;;4.10;;
51082;SDS011;37131;42.694;23.350;2022-07-23T15:19:40;8.68;;;2.80;;
51082;SDS011;37131;42.694;23.350;2022-07-23T15:22:06;8.98;;;2.42;;
51082;SDS011;37131;42.694;23.350;2022-07-23T15:24:32;15.15;;;3.85;;
51082;SDS011;37131;42.694;23.350;2022-07-23T15:26:58;9.35;;;2.90;;
51082;SDS011;37131;42.694;23.350;2022-07-23T15:29:24;6.90;;;2.35;;